createdAt,value
2022-12-28T00:00:40.944Z,65.37
2022-12-28T00:04:42.449Z,65.02
2022-12-28T00:08:44.239Z,64.58
2022-12-28T00:12:45.761Z,64.60
2022-12-28T00:16:47.301Z,64.46
2022-12-28T00:20:59.620Z,64.34
2022-12-28T00:25:01.152Z,63.91
2022-12-28T00:29:05.320Z,64.09
2022-12-28T00:33:07.185Z,64.50
2022-12-28T00:37:12.999Z,65.27
2022-12-28T00:41:15.027Z,66.14
2022-12-28T00:45:17.771Z,67.42
2022-12-28T00:49:19.249Z,67.82
2022-12-28T00:53:20.954Z,68.30
2022-12-28T00:57:22.448Z,68.77
2022-12-28T01:01:24.862Z,69.63
2022-12-28T01:05:26.595Z,69.26
2022-12-28T01:09:28.134Z,70.39
2022-12-28T01:13:29.679Z,70.99
2022-12-28T01:17:31.278Z,71.24
2022-12-28T01:21:35.561Z,71.71
2022-12-28T01:25:37.549Z,72.10
2022-12-28T01:29:40.351Z,72.79
2022-12-28T01:33:44.295Z,72.84
2022-12-28T01:37:45.934Z,73.25
2022-12-28T01:41:48.167Z,73.27
2022-12-28T01:45:52.770Z,72.69
2022-12-28T01:50:00.688Z,73.09
2022-12-28T01:54:04.440Z,73.29
2022-12-28T01:58:11.779Z,73.28
2022-12-28T02:02:15.380Z,73.85
2022-12-28T02:06:17.104Z,74.06
2022-12-28T02:10:40.652Z,73.77
2022-12-28T02:14:43.634Z,73.96
2022-12-28T02:18:47.327Z,73.69
2022-12-28T02:23:18.288Z,74.13
2022-12-28T02:27:46.766Z,74.68
2022-12-28T02:32:06.678Z,74.52
2022-12-28T02:36:23.263Z,74.03
2022-12-28T02:40:30.503Z,74.53
2022-12-28T02:44:50.791Z,73.83
2022-12-28T02:49:10.837Z,74.05
2022-12-28T02:53:34.518Z,73.98
2022-12-28T02:57:54.690Z,73.95
2022-12-28T03:02:11.567Z,74.59
2022-12-28T03:06:42.489Z,74.03
2022-12-28T03:10:51.781Z,73.79
2022-12-28T03:15:03.810Z,73.62
2022-12-28T03:19:27.918Z,73.60
2022-12-28T03:23:55.978Z,73.66
2022-12-28T03:28:17.335Z,74.20
2022-12-28T03:32:20.059Z,74.14
2022-12-28T03:36:43.406Z,73.50
2022-12-28T03:40:50.238Z,72.63
2022-12-28T03:44:58.103Z,72.17
2022-12-28T03:49:01.769Z,72.71
2022-12-28T03:53:04.505Z,72.10
2022-12-28T03:57:06.209Z,71.98
2022-12-28T04:01:13.404Z,72.06
2022-12-28T04:05:16.398Z,72.30
2022-12-28T04:09:18.133Z,71.84
2022-12-28T04:13:19.708Z,72.03
2022-12-28T04:17:34.680Z,72.01
2022-12-28T04:21:36.330Z,72.07
2022-12-28T04:25:37.989Z,71.77
2022-12-28T04:29:39.950Z,71.68
2022-12-28T04:33:51.808Z,71.58
2022-12-28T04:37:53.640Z,71.12
2022-12-28T04:41:55.184Z,71.29
2022-12-28T04:46:02.471Z,71.25
2022-12-28T04:50:04.173Z,71.21
2022-12-28T04:54:05.814Z,71.05
2022-12-28T04:58:07.305Z,70.84
2022-12-28T05:02:09.028Z,70.42
2022-12-28T05:06:15.045Z,70.49
2022-12-28T05:10:16.912Z,70.91
2022-12-28T05:14:18.462Z,70.55
2022-12-28T05:18:20.148Z,70.32
2022-12-28T05:22:21.678Z,70.69
2022-12-28T05:26:27.008Z,70.87
2022-12-28T05:30:28.510Z,70.21
2022-12-28T05:34:30.024Z,70.90
2022-12-28T05:38:32.912Z,70.81
2022-12-28T05:42:35.918Z,70.74
2022-12-28T05:46:37.505Z,71.02
2022-12-28T05:50:39.612Z,70.58
2022-12-28T05:54:41.114Z,70.19
2022-12-28T05:58:44.456Z,70.12
2022-12-28T06:02:46.156Z,69.96
2022-12-28T06:06:48.547Z,68.93
2022-12-28T06:10:49.983Z,68.69
2022-12-28T06:14:51.731Z,68.92
2022-12-28T06:18:53.933Z,69.02
2022-12-28T06:22:55.451Z,69.06
2022-12-28T06:26:56.873Z,68.60
2022-12-28T06:31:06.146Z,68.45
2022-12-28T06:35:08.213Z,68.63
2022-12-28T06:39:12.504Z,68.47
2022-12-28T06:43:14.080Z,68.53
2022-12-28T06:47:15.546Z,67.59
2022-12-28T06:51:21.910Z,67.29
2022-12-28T06:55:24.014Z,67.47
2022-12-28T06:59:25.487Z,66.22
2022-12-28T07:03:27.048Z,65.56
2022-12-28T07:07:28.676Z,65.91
2022-12-28T07:11:30.842Z,65.36
2022-12-28T07:15:32.374Z,65.63
2022-12-28T07:19:34.091Z,65.31
2022-12-28T07:23:35.941Z,65.24
2022-12-28T07:27:37.634Z,64.59
2022-12-28T07:31:45.149Z,64.40
2022-12-28T07:35:47.521Z,64.52
2022-12-28T07:39:49.193Z,64.61
2022-12-28T07:43:51.347Z,64.18
2022-12-28T07:47:52.808Z,64.25
2022-12-28T07:51:54.726Z,64.32
2022-12-28T07:55:57.955Z,64.31
2022-12-28T07:59:59.561Z,64.19
2022-12-28T08:04:04.261Z,64.29
2022-12-28T08:08:06.123Z,63.93
2022-12-28T08:12:07.766Z,63.85
2022-12-28T08:16:11.842Z,63.92
2022-12-28T08:20:13.478Z,63.65
2022-12-28T08:24:19.794Z,63.26
2022-12-28T08:28:21.390Z,63.17
2022-12-28T08:32:22.908Z,63.22
2022-12-28T08:36:24.486Z,63.06
2022-12-28T08:40:29.781Z,63.29
2022-12-28T08:44:31.269Z,62.94
2022-12-28T08:48:34.296Z,62.64
2022-12-28T08:52:35.924Z,61.50
2022-12-28T08:56:40.271Z,61.50
2022-12-28T09:00:41.850Z,60.76
2022-12-28T09:04:44.162Z,60.34
2022-12-28T09:09:04.995Z,59.34
2022-12-28T09:13:07.312Z,59.05
2022-12-28T09:17:10.010Z,59.66
2022-12-28T09:21:15.466Z,59.83
2022-12-28T09:25:17.017Z,59.74
2022-12-28T09:29:18.538Z,59.11
2022-12-28T09:34:05.414Z,58.93
2022-12-28T09:38:00.218Z,59.01
2022-12-28T09:42:24.311Z,59.51
2022-12-28T09:46:26.131Z,59.33
2022-12-28T09:50:29.992Z,60.21
2022-12-28T09:54:31.717Z,60.45
2022-12-28T09:58:41.982Z,60.09
2022-12-28T10:02:55.708Z,60.33
2022-12-28T10:07:01.853Z,60.04
2022-12-28T10:11:05.404Z,59.38
2022-12-28T10:15:12.361Z,59.95
2022-12-28T10:19:22.588Z,59.81
2022-12-28T10:23:31.010Z,59.04
2022-12-28T10:27:32.782Z,59.78
2022-12-28T10:31:38.602Z,58.83
2022-12-28T10:35:50.729Z,58.60
2022-12-28T10:39:58.801Z,58.10
2022-12-28T10:44:38.324Z,57.46
2022-12-28T10:48:38.095Z,55.53
2022-12-28T10:52:40.398Z,55.76
2022-12-28T10:56:49.396Z,56.48
2022-12-28T11:01:14.283Z,56.69
2022-12-28T11:05:23.486Z,56.45
2022-12-28T11:09:35.208Z,56.72
2022-12-28T11:13:37.684Z,56.50
2022-12-28T11:17:39.355Z,56.26
2022-12-28T11:21:42.521Z,56.52
2022-12-28T11:25:44.080Z,55.67
2022-12-28T11:29:48.731Z,55.99
2022-12-28T11:33:54.898Z,55.85
2022-12-28T11:37:58.973Z,55.35
2022-12-28T11:46:23.200Z,55.39
2022-12-28T11:50:34.207Z,56.62
2022-12-28T11:54:53.721Z,57.40
2022-12-28T11:58:58.177Z,58.23
2022-12-28T12:03:01.546Z,59.24
2022-12-28T12:07:03.077Z,59.12
2022-12-28T12:11:30.901Z,58.79
2022-12-28T12:15:43.602Z,58.81
2022-12-28T12:19:53.092Z,59.41
2022-12-28T12:24:04.685Z,59.44
2022-12-28T12:28:21.489Z,59.46
2022-12-28T12:32:30.793Z,60.02
2022-12-28T12:37:00.453Z,59.79
2022-12-28T12:41:11.131Z,60.25
2022-12-28T12:45:31.127Z,60.24
2022-12-28T12:50:06.127Z,60.55
2022-12-28T12:54:38.708Z,60.73
2022-12-28T12:59:04.470Z,60.65
2022-12-28T13:03:31.197Z,60.36
2022-12-28T13:07:33.625Z,60.03
2022-12-28T13:11:37.934Z,59.59
2022-12-28T13:15:43.477Z,59.07
2022-12-28T13:19:45.537Z,58.81
2022-12-28T13:23:47.722Z,57.56
2022-12-28T13:27:49.436Z,57.30
2022-12-28T13:31:51.753Z,57.40
2022-12-28T13:36:05.835Z,57.50
2022-12-28T13:40:13.263Z,57.83
2022-12-28T13:44:17.724Z,58.49
2022-12-28T13:48:19.939Z,58.97
2022-12-28T13:52:33.414Z,58.58
2022-12-28T13:56:38.342Z,58.31
2022-12-28T14:00:44.278Z,57.57
2022-12-28T14:04:52.757Z,57.25
2022-12-28T14:08:55.352Z,57.32
2022-12-28T14:12:58.635Z,57.60
2022-12-28T14:17:02.869Z,57.77
2022-12-28T14:21:06.352Z,58.15
2022-12-28T14:25:16.800Z,57.74
2022-12-28T14:29:31.363Z,57.75
2022-12-28T14:33:36.994Z,57.61
2022-12-28T14:37:40.735Z,57.91
2022-12-28T14:41:46.522Z,57.06
2022-12-28T14:46:06.831Z,57.13
2022-12-28T14:50:27.850Z,57.60
2022-12-28T14:54:30.420Z,57.56
2022-12-28T14:58:41.169Z,59.11
2022-12-28T15:02:43.182Z,60.52
2022-12-28T15:06:44.879Z,60.33
2022-12-28T15:10:52.946Z,60.67
2022-12-28T15:14:54.540Z,61.35
2022-12-28T15:18:56.498Z,61.48
2022-12-28T15:22:58.163Z,61.44
2022-12-28T15:26:59.974Z,62.00
2022-12-28T15:31:05.958Z,62.09
2022-12-28T15:35:08.100Z,62.40
2022-12-28T15:39:12.262Z,61.76
2022-12-28T15:43:13.903Z,61.99
2022-12-28T15:47:15.466Z,62.78
2022-12-28T15:51:17.432Z,62.44
2022-12-28T15:55:18.956Z,62.81
2022-12-28T15:59:20.690Z,62.58
2022-12-28T16:03:22.570Z,62.40
2022-12-28T16:07:24.172Z,62.90
2022-12-28T16:11:29.430Z,62.89
2022-12-28T16:15:31.068Z,62.60
2022-12-28T16:19:32.785Z,63.02
2022-12-28T16:23:39.917Z,63.31
2022-12-28T16:27:41.581Z,64.05
2022-12-28T16:31:43.189Z,64.34
2022-12-28T16:35:50.863Z,64.63
2022-12-28T16:39:56.042Z,64.09
2022-12-28T16:44:05.071Z,64.04
2022-12-28T16:48:08.443Z,63.95
2022-12-28T16:52:10.440Z,64.27
2022-12-28T16:56:12.121Z,64.69
2022-12-28T17:00:14.020Z,64.48
2022-12-28T17:04:16.112Z,64.23
2022-12-28T17:08:18.555Z,63.77
2022-12-28T17:12:20.356Z,63.66
2022-12-28T17:16:21.938Z,63.44
2022-12-28T17:20:25.674Z,63.53
2022-12-28T17:24:27.306Z,63.36
2022-12-28T17:28:29.422Z,63.46
2022-12-28T17:32:31.021Z,63.22
2022-12-28T17:36:32.605Z,63.65
2022-12-28T17:40:34.231Z,62.89
2022-12-28T17:44:35.826Z,62.72
2022-12-28T17:48:37.321Z,63.03
2022-12-28T17:52:40.094Z,63.27
2022-12-28T17:56:42.475Z,62.70
2022-12-28T18:00:43.978Z,62.83
2022-12-28T18:04:45.659Z,63.05
2022-12-28T18:08:47.321Z,62.85
2022-12-28T18:12:50.090Z,62.79
2022-12-28T18:16:51.836Z,62.74
2022-12-28T18:21:01.522Z,62.95
2022-12-28T18:25:03.278Z,62.79
2022-12-28T18:29:05.288Z,62.89
2022-12-28T18:33:06.844Z,62.70
2022-12-28T18:37:08.499Z,63.02
2022-12-28T18:41:16.171Z,63.01
2022-12-28T18:45:17.730Z,62.67
2022-12-28T18:49:19.830Z,62.57
2022-12-28T18:53:22.379Z,63.07
2022-12-28T18:57:24.075Z,63.28
2022-12-28T19:06:02.385Z,62.53
2022-12-28T19:10:12.955Z,62.87
2022-12-28T19:14:15.739Z,63.06
2022-12-28T19:18:17.282Z,62.93
2022-12-28T19:22:18.924Z,62.68
2022-12-28T19:26:22.095Z,62.19
2022-12-28T19:30:23.774Z,62.64
2022-12-28T19:34:25.363Z,62.45
2022-12-28T19:38:27.622Z,63.29
2022-12-28T19:42:29.172Z,63.82
2022-12-28T19:46:31.403Z,63.98
2022-12-28T19:50:33.367Z,63.85
2022-12-28T19:54:35.192Z,64.12
2022-12-28T19:58:39.241Z,64.16
2022-12-28T20:02:41.053Z,64.59
2022-12-28T20:06:44.050Z,64.80
2022-12-28T20:10:45.728Z,65.09
2022-12-28T20:14:47.313Z,65.23
2022-12-28T20:18:50.173Z,65.44
2022-12-28T20:22:51.876Z,65.94
2022-12-28T20:26:59.612Z,65.90
2022-12-28T20:31:05.740Z,65.64
2022-12-28T20:35:07.648Z,65.80
2022-12-28T20:39:09.332Z,65.56
2022-12-28T20:43:22.812Z,65.62
2022-12-28T20:47:25.133Z,66.14
2022-12-28T20:51:27.262Z,65.24
2022-12-28T20:55:29.293Z,65.27
2022-12-28T20:59:30.916Z,65.31
2022-12-28T21:03:33.002Z,65.49
2022-12-28T21:07:34.886Z,65.53
2022-12-28T21:11:36.415Z,65.50
2022-12-28T21:15:40.905Z,65.56
2022-12-28T21:19:42.419Z,65.42
2022-12-28T21:23:44.198Z,65.65
2022-12-28T21:27:45.926Z,66.00
2022-12-28T21:31:47.850Z,66.05
2022-12-28T21:36:00.549Z,65.97
2022-12-28T21:40:07.368Z,66.21
2022-12-28T21:44:12.248Z,65.83
2022-12-28T21:48:13.761Z,66.06
2022-12-28T21:52:15.424Z,65.65
2022-12-28T21:56:17.084Z,65.87
2022-12-28T22:00:37.631Z,65.59
2022-12-28T22:05:02.667Z,65.79
2022-12-28T22:09:23.235Z,65.89
2022-12-28T22:13:24.803Z,65.29
2022-12-28T22:17:26.308Z,65.14
2022-12-28T22:21:28.335Z,65.51
2022-12-28T22:25:30.830Z,64.69
2022-12-28T22:29:32.555Z,64.91
2022-12-28T22:33:34.595Z,64.65
2022-12-28T22:37:36.866Z,63.90
2022-12-28T22:41:38.350Z,64.00
2022-12-28T22:45:40.063Z,63.77
2022-12-28T22:49:41.669Z,63.74
2022-12-28T22:53:43.578Z,63.31
2022-12-28T22:57:45.207Z,62.95
2022-12-28T23:01:48.239Z,63.25
2022-12-28T23:05:52.585Z,62.92
2022-12-28T23:09:54.212Z,62.91
2022-12-28T23:14:17.659Z,63.37
2022-12-28T23:18:37.835Z,63.50
2022-12-28T23:23:11.983Z,63.21
2022-12-28T23:27:22.115Z,62.81
2022-12-28T23:31:23.924Z,62.91
2022-12-28T23:35:26.634Z,63.22
2022-12-28T23:39:28.076Z,63.32
2022-12-28T23:43:29.578Z,64.02
2022-12-28T23:47:31.576Z,64.32
2022-12-28T23:51:33.082Z,64.14
2022-12-28T23:55:35.519Z,63.81
2022-12-28T23:59:37.001Z,63.98
